Time;durP1;ratioP1;P1;durP2;ratioP2;P2;SDS_P1;SDS_P2;PMS_P1;PMS_P2;Temp;Humidity;BMP_temperature;BMP_pressure;BME280_temperature;BME280_humidity;BME280_pressure;Samples;Min_cycle;Max_cycle;Signal;HPM_P1;HPM_P2
2021/11/30 00:00:00;;;;;;;24.77;16.45;;;2.70;99.90;;;;;;2040455;29;20086;-69
2021/11/30 00:01:01;;;;;;;24.75;16.48;;;2.70;99.90;;;;;;2040768;29;20043;-70
2021/11/30 00:02:03;;;;;;;24.88;16.63;;;2.70;99.90;;;;;;2039664;29;20055;-71
2021/11/30 00:03:03;;;;;;;25.65;16.52;;;2.70;99.90;;;;;;2040399;29;20040;-70
2021/11/30 00:04:04;;;;;;;25.02;16.50;;;2.70;99.90;;;;;;2039806;29;20094;-70
2021/11/30 00:05:06;;;;;;;25.52;16.70;;;2.60;99.90;;;;;;2039973;29;20114;-72
2021/11/30 00:06:08;;;;;;;26.30;16.63;;;2.60;99.90;;;;;;2047795;28;20078;-72
2021/11/30 00:07:09;;;;;;;25.23;15.98;;;2.70;99.90;;;;;;2040076;29;20111;-72
2021/11/30 00:08:11;;;;;;;25.35;16.67;;;2.70;99.90;;;;;;2039961;29;20043;-71
2021/11/30 00:10:43;;;;;;;24.27;16.02;;;2.60;99.90;;;;;;2047895;29;20055;-72
2021/11/30 00:10:44;;;;;;;25.20;16.52;;;2.70;99.90;;;;;;2040623;29;20039;-72
2021/11/30 00:11:44;;;;;;;24.65;15.27;;;2.70;99.90;;;;;;2039899;29;20024;-71
2021/11/30 00:12:45;;;;;;;23.98;16.02;;;2.70;99.90;;;;;;2040626;29;20443;-71
2021/11/30 00:13:46;;;;;;;23.45;16.13;;;2.70;99.90;;;;;;2040137;29;20031;-71
2021/11/30 00:14:51;;;;;;;23.10;15.32;;;2.70;99.90;;;;;;2040262;29;20024;-72
2021/11/30 00:15:53;;;;;;;25.80;16.20;;;2.70;99.90;;;;;;2040679;29;20038;-72
2021/11/30 00:16:55;;;;;;;23.00;15.77;;;2.70;99.90;;;;;;2040414;29;20019;-72
2021/11/30 00:17:55;;;;;;;23.42;15.52;;;2.70;99.90;;;;;;2040549;29;20079;-72
2021/11/30 00:18:56;;;;;;;25.20;15.90;;;2.70;99.90;;;;;;2040858;29;20036;-71
2021/11/30 00:19:57;;;;;;;23.70;16.20;;;2.70;99.90;;;;;;2040541;29;20032;-68
2021/11/30 00:21:01;;;;;;;23.73;15.70;;;2.70;99.90;;;;;;2040549;29;20586;-68
2021/11/30 00:22:04;;;;;;;23.23;15.45;;;2.70;99.90;;;;;;2039559;29;20032;-67
2021/11/30 00:23:05;;;;;;;23.90;15.63;;;2.70;99.90;;;;;;2040546;29;20465;-68
2021/11/30 00:24:06;;;;;;;21.40;14.50;;;2.70;99.90;;;;;;2040540;29;20039;-68
2021/11/30 00:25:07;;;;;;;23.45;15.40;;;2.70;99.90;;;;;;2040658;29;20063;-68
2021/11/30 00:26:08;;;;;;;22.75;15.43;;;2.70;99.90;;;;;;2040569;29;20043;-68
2021/11/30 00:27:09;;;;;;;21.83;14.90;;;2.70;99.90;;;;;;2039957;29;20042;-67
2021/11/30 00:28:10;;;;;;;22.42;14.82;;;2.70;99.90;;;;;;2040164;29;20046;-67
2021/11/30 00:29:11;;;;;;;22.08;15.00;;;2.70;99.90;;;;;;2039901;29;20506;-67
2021/11/30 00:30:12;;;;;;;23.73;15.70;;;2.70;99.90;;;;;;2040467;29;20036;-67
2021/11/30 00:31:13;;;;;;;23.63;15.38;;;2.70;99.90;;;;;;2040343;29;20172;-69
2021/11/30 00:32:14;;;;;;;24.00;15.55;;;2.70;99.90;;;;;;2039757;29;20402;-67
2021/11/30 00:33:15;;;;;;;23.00;14.98;;;2.70;99.90;;;;;;2039788;29;20383;-68
2021/11/30 00:34:16;;;;;;;23.20;15.38;;;2.70;99.90;;;;;;2039522;29;20047;-68
2021/11/30 00:35:17;;;;;;;23.75;15.65;;;2.70;99.90;;;;;;2039671;29;20031;-67
2021/11/30 00:36:18;;;;;;;21.40;14.07;;;2.70;99.90;;;;;;2039798;29;20036;-68
2021/11/30 00:37:19;;;;;;;24.33;15.38;;;2.70;99.90;;;;;;2040411;29;20024;-67
2021/11/30 00:38:19;;;;;;;24.73;15.57;;;2.70;99.90;;;;;;2040332;29;20055;-68
2021/11/30 00:39:20;;;;;;;23.27;15.18;;;2.70;99.90;;;;;;2039707;29;20101;-68
2021/11/30 00:40:21;;;;;;;23.80;15.20;;;2.70;99.90;;;;;;2039622;29;20139;-68
2021/11/30 00:41:22;;;;;;;24.67;15.45;;;2.80;99.90;;;;;;2040026;29;20027;-68
2021/11/30 00:42:24;;;;;;;21.70;14.52;;;2.70;99.90;;;;;;2039629;29;20477;-69
2021/11/30 00:43:32;;;;;;;23.75;15.75;;;2.70;99.90;;;;;;2040282;29;20417;-68
2021/11/30 00:44:35;;;;;;;24.55;15.25;;;2.80;99.90;;;;;;2040308;29;20492;-69
2021/11/30 00:45:49;;;;;;;25.83;15.40;;;2.70;99.90;;;;;;2039722;29;20034;-69
2021/11/30 00:46:53;;;;;;;21.73;14.55;;;2.70;99.90;;;;;;2039813;29;20068;-70
2021/11/30 00:47:58;;;;;;;23.48;15.13;;;2.70;99.90;;;;;;2039867;29;20020;-70
2021/11/30 00:49:03;;;;;;;22.98;15.27;;;2.70;99.90;;;;;;2040201;29;20544;-69
2021/11/30 00:50:06;;;;;;;23.42;15.25;;;2.80;99.90;;;;;;2040229;29;20414;-69
2021/11/30 00:51:17;;;;;;;24.33;15.32;;;2.80;99.90;;;;;;2040405;29;20114;-70
2021/11/30 00:52:17;;;;;;;23.95;14.75;;;2.80;99.90;;;;;;2038866;29;20091;-70
2021/11/30 00:53:19;;;;;;;22.88;15.23;;;2.80;99.90;;;;;;2039680;29;20074;-70
2021/11/30 00:54:21;;;;;;;24.30;15.27;;;2.80;99.90;;;;;;2040233;29;20439;-69
2021/11/30 00:55:22;;;;;;;23.60;15.18;;;2.80;99.90;;;;;;2039539;29;20047;-70
2021/11/30 00:56:23;;;;;;;23.48;15.07;;;2.80;99.90;;;;;;2039517;29;20046;-69
2021/11/30 00:57:25;;;;;;;24.38;15.60;;;2.80;99.90;;;;;;2040266;29;20036;-69
2021/11/30 00:58:25;;;;;;;21.95;14.85;;;2.80;99.90;;;;;;2040021;29;20024;-69
2021/11/30 00:59:27;;;;;;;25.25;16.15;;;2.80;99.90;;;;;;2039585;29;20098;-70
2021/11/30 01:00:30;;;;;;;24.15;15.40;;;2.80;99.90;;;;;;2039539;29;20133;-70
2021/11/30 01:01:31;;;;;;;24.75;15.98;;;2.80;99.90;;;;;;2039408;29;20031;-69
2021/11/30 01:02:32;;;;;;;24.30;15.90;;;2.80;99.90;;;;;;2039471;29;20036;-69
2021/11/30 01:03:33;;;;;;;24.95;15.60;;;2.80;99.90;;;;;;2039573;29;20126;-69
2021/11/30 01:04:34;;;;;;;23.40;15.90;;;2.80;99.90;;;;;;2040213;29;20067;-69
2021/11/30 01:05:36;;;;;;;24.52;15.90;;;2.80;99.90;;;;;;2040176;29;20035;-69
2021/11/30 01:06:38;;;;;;;23.80;15.65;;;2.80;99.90;;;;;;2040218;29;20064;-68
2021/11/30 01:07:39;;;;;;;24.40;15.80;;;2.80;99.90;;;;;;2040278;29;20086;-69
2021/11/30 01:08:39;;;;;;;24.65;15.60;;;2.80;99.90;;;;;;2040270;29;20107;-69
2021/11/30 01:09:42;;;;;;;24.92;15.98;;;2.80;99.90;;;;;;2040122;29;20043;-71
2021/11/30 01:10:42;;;;;;;26.20;16.02;;;2.80;99.90;;;;;;2040080;29;20043;-70
2021/11/30 01:11:44;;;;;;;28.10;16.65;;;2.80;99.90;;;;;;2039264;29;20023;-69
2021/11/30 01:12:45;;;;;;;24.85;15.77;;;2.80;99.90;;;;;;2039502;29;20024;-69
2021/11/30 01:13:46;;;;;;;25.38;15.45;;;2.80;99.90;;;;;;2039627;29;20051;-69
2021/11/30 01:14:47;;;;;;;25.85;15.82;;;2.80;99.90;;;;;;2039769;29;20034;-70
2021/11/30 01:15:49;;;;;;;24.83;16.25;;;2.80;99.90;;;;;;2040227;29;20047;-70
2021/11/30 01:16:49;;;;;;;26.08;16.35;;;2.80;99.90;;;;;;2039544;29;20035;-70
2021/11/30 01:17:50;;;;;;;25.30;16.42;;;2.80;99.90;;;;;;2039607;29;20111;-70
2021/11/30 01:18:51;;;;;;;25.92;17.05;;;2.80;99.90;;;;;;2040178;29;20480;-70
2021/11/30 01:19:52;;;;;;;25.48;16.30;;;2.80;99.90;;;;;;2040059;29;20035;-70
2021/11/30 01:20:53;;;;;;;25.45;16.08;;;2.80;99.90;;;;;;2040136;29;20055;-70
2021/11/30 01:21:54;;;;;;;24.42;15.57;;;2.80;99.90;;;;;;2039322;29;20051;-70
2021/11/30 01:22:56;;;;;;;27.02;16.55;;;2.80;99.90;;;;;;2040070;29;20036;-69
2021/11/30 01:23:56;;;;;;;25.77;16.15;;;2.80;99.90;;;;;;2039413;29;20064;-70
2021/11/30 01:24:57;;;;;;;25.30;15.75;;;2.80;99.90;;;;;;2039661;29;20110;-69
2021/11/30 01:26:00;;;;;;;25.73;15.95;;;2.80;99.90;;;;;;2040148;29;20116;-69
2021/11/30 01:27:01;;;;;;;24.08;15.48;;;2.70;99.90;;;;;;2039525;29;20039;-70
2021/11/30 01:28:02;;;;;;;25.30;16.05;;;2.80;99.90;;;;;;2039551;29;20035;-70
2021/11/30 01:29:04;;;;;;;25.20;15.65;;;2.70;99.90;;;;;;2039491;29;20035;-70
2021/11/30 01:30:08;;;;;;;25.52;16.73;;;2.70;99.90;;;;;;2039469;29;20123;-69
2021/11/30 01:31:09;;;;;;;25.17;16.17;;;2.70;99.90;;;;;;2040133;29;20030;-69
2021/11/30 01:32:10;;;;;;;26.02;15.68;;;2.70;99.90;;;;;;2038607;29;20036;-69
2021/11/30 01:33:11;;;;;;;25.65;16.00;;;2.70;99.90;;;;;;2039701;29;20032;-70
2021/11/30 01:34:12;;;;;;;25.15;16.27;;;2.70;99.90;;;;;;2040014;29;20031;-69
2021/11/30 01:35:16;;;;;;;24.50;16.08;;;2.70;99.90;;;;;;2040179;29;20035;-70
2021/11/30 01:36:18;;;;;;;24.15;15.68;;;2.70;99.90;;;;;;2039436;29;20044;-70
2021/11/30 01:37:19;;;;;;;24.15;15.32;;;2.70;99.90;;;;;;2039501;29;20036;-69
2021/11/30 01:38:19;;;;;;;23.85;15.38;;;2.70;99.90;;;;;;2039287;29;20038;-69
2021/11/30 01:39:21;;;;;;;21.90;15.13;;;2.70;99.90;;;;;;2040411;29;20039;-69
2021/11/30 01:40:24;;;;;;;25.95;15.57;;;2.70;99.90;;;;;;2041514;29;20480;-69
2021/11/30 01:41:25;;;;;;;25.08;15.80;;;2.60;99.90;;;;;;2041931;29;20027;-69
2021/11/30 01:42:27;;;;;;;25.27;16.20;;;2.60;99.90;;;;;;2043615;29;20027;-69
2021/11/30 01:43:37;;;;;;;23.67;15.07;;;2.60;99.90;;;;;;2044160;29;20103;-70
2021/11/30 01:47:05;;;;;;;24.90;14.73;;;2.60;99.90;;;;;;2040372;29;20083;-69
2021/11/30 01:50:10;;;;;;;23.52;15.20;;;2.60;99.90;;;;;;2042049;29;20072;-70
2021/11/30 01:51:11;;;;;;;22.98;14.52;;;2.70;99.90;;;;;;2041809;29;20578;-71
2021/11/30 01:52:13;;;;;;;21.88;14.68;;;2.60;99.90;;;;;;2041079;29;20047;-70
2021/11/30 01:53:14;;;;;;;23.77;14.77;;;2.70;99.90;;;;;;2039753;29;20023;-70
2021/11/30 01:54:15;;;;;;;22.77;14.68;;;2.70;99.90;;;;;;2040140;29;20504;-69
2021/11/30 01:55:17;;;;;;;21.50;14.32;;;2.60;99.90;;;;;;2040130;29;20121;-69
2021/11/30 01:56:18;;;;;;;23.02;15.13;;;2.60;99.90;;;;;;2040170;29;20030;-69
2021/11/30 01:57:23;;;;;;;23.42;15.07;;;2.60;99.90;;;;;;2040113;29;20105;-69
2021/11/30 01:58:23;;;;;;;23.23;14.48;;;2.70;99.90;;;;;;2040171;29;20158;-69
2021/11/30 01:59:26;;;;;;;22.83;14.38;;;2.70;99.90;;;;;;2039237;29;20028;-69
2021/11/30 02:00:28;;;;;;;22.75;14.68;;;2.70;99.90;;;;;;2039643;29;20044;-69
2021/11/30 02:01:28;;;;;;;22.27;14.23;;;2.70;99.90;;;;;;2039443;29;20043;-70
2021/11/30 02:02:29;;;;;;;21.73;14.57;;;2.70;99.90;;;;;;2040002;29;20040;-69
2021/11/30 02:03:30;;;;;;;21.30;14.13;;;2.70;99.90;;;;;;2040005;29;20039;-69
2021/11/30 02:04:31;;;;;;;22.33;14.13;;;2.70;99.90;;;;;;2040055;29;20027;-69
2021/11/30 02:05:38;;;;;;;21.33;13.70;;;2.70;99.90;;;;;;2040050;29;20050;-69
2021/11/30 02:06:39;;;;;;;23.05;14.15;;;2.70;99.90;;;;;;2040152;29;20027;-69
2021/11/30 02:07:40;;;;;;;20.40;13.77;;;2.70;99.90;;;;;;2039899;29;20035;-70
2021/11/30 02:08:41;;;;;;;21.63;13.65;;;2.60;99.90;;;;;;2041783;29;20032;-70
2021/11/30 02:09:45;;;;;;;20.95;13.55;;;2.60;99.90;;;;;;2042153;29;20032;-70
2021/11/30 02:10:45;;;;;;;20.77;13.50;;;2.60;99.90;;;;;;2040948;29;20036;-70
2021/11/30 02:11:46;;;;;;;21.05;13.35;;;2.60;99.90;;;;;;2040375;29;20019;-69
2021/11/30 02:12:47;;;;;;;20.52;13.38;;;2.60;99.90;;;;;;2042003;29;20543;-68
2021/11/30 02:13:48;;;;;;;19.67;13.20;;;2.60;99.90;;;;;;2041987;29;20019;-69
2021/11/30 02:14:50;;;;;;;20.35;13.18;;;2.60;99.90;;;;;;2041790;29;20388;-69
2021/11/30 02:15:54;;;;;;;19.92;13.15;;;2.50;99.90;;;;;;2042581;29;20028;-69
2021/11/30 02:16:55;;;;;;;20.73;13.25;;;2.50;99.90;;;;;;2041983;29;20382;-70
2021/11/30 02:17:58;;;;;;;20.23;13.02;;;2.50;99.90;;;;;;2041853;29;20032;-70
2021/11/30 02:19:00;;;;;;;20.17;13.35;;;2.50;99.90;;;;;;2041508;29;20020;-69
2021/11/30 02:20:03;;;;;;;19.38;12.90;;;2.50;99.90;;;;;;2041479;29;20081;-70
2021/11/30 02:21:06;;;;;;;18.85;12.60;;;2.50;99.90;;;;;;2041374;29;20056;-70
2021/11/30 02:22:11;;;;;;;20.58;13.15;;;2.50;99.90;;;;;;2040395;29;20035;-70
2021/11/30 02:23:35;;;;;;;19.25;12.10;;;2.50;99.90;;;;;;2041240;29;20063;-70
2021/11/30 02:24:35;;;;;;;19.73;12.25;;;2.50;99.90;;;;;;2041390;29;20032;-70
2021/11/30 02:25:36;;;;;;;18.85;12.95;;;2.50;99.90;;;;;;2041308;29;20036;-70
2021/11/30 02:26:39;;;;;;;19.20;12.65;;;2.50;99.90;;;;;;2041360;29;20055;-70
2021/11/30 02:27:39;;;;;;;18.95;12.13;;;2.50;99.90;;;;;;2041409;29;20036;-70
2021/11/30 02:28:43;;;;;;;18.65;12.35;;;2.40;99.90;;;;;;2041254;29;20039;-71
2021/11/30 02:29:44;;;;;;;20.15;12.57;;;2.40;99.90;;;;;;2040671;29;20553;-70
2021/11/30 02:30:45;;;;;;;20.27;12.68;;;2.40;99.90;;;;;;2040564;29;20113;-70
2021/11/30 02:31:48;;;;;;;18.27;12.60;;;2.40;99.90;;;;;;2040557;29;20051;-71
2021/11/30 02:32:49;;;;;;;18.58;12.32;;;2.40;99.90;;;;;;2041117;29;20028;-70
2021/11/30 02:33:50;;;;;;;17.58;11.68;;;2.30;99.90;;;;;;2041251;29;20024;-70
2021/11/30 02:34:50;;;;;;;18.80;11.80;;;2.30;99.90;;;;;;2041086;29;20510;-70
2021/11/30 02:35:52;;;;;;;17.75;11.98;;;2.30;99.90;;;;;;2041184;29;20035;-70
2021/11/30 02:36:55;;;;;;;17.17;11.57;;;2.30;99.90;;;;;;2040614;29;20031;-70
2021/11/30 02:37:58;;;;;;;18.48;12.13;;;2.20;99.90;;;;;;2040618;29;20070;-70
2021/11/30 02:39:01;;;;;;;18.63;12.45;;;2.20;99.90;;;;;;2040541;29;20019;-69
2021/11/30 02:40:03;;;;;;;17.73;11.95;;;2.20;99.90;;;;;;2041361;29;20740;-69
2021/11/30 02:41:04;;;;;;;17.23;11.65;;;2.10;99.90;;;;;;2041317;29;20032;-69
2021/11/30 02:42:07;;;;;;;17.73;11.52;;;2.10;99.90;;;;;;2040401;29;20043;-70
2021/11/30 02:43:07;;;;;;;16.85;11.57;;;2.10;99.90;;;;;;2041252;29;20074;-70
2021/11/30 02:44:10;;;;;;;17.83;11.50;;;2.10;99.90;;;;;;2041268;29;20488;-70
2021/11/30 02:45:11;;;;;;;19.95;12.27;;;2.10;99.90;;;;;;2041311;29;20095;-70
2021/11/30 02:46:33;;;;;;;18.05;11.32;;;2.10;99.90;;;;;;2040635;29;20035;-71
2021/11/30 02:47:34;;;;;;;18.38;11.07;;;2.10;99.90;;;;;;2040572;29;20087;-70
2021/11/30 02:48:35;;;;;;;17.52;11.35;;;2.10;99.90;;;;;;2040571;29;20093;-70
2021/11/30 02:49:38;;;;;;;19.85;11.93;;;2.10;99.90;;;;;;2041163;29;20107;-70
2021/11/30 02:50:40;;;;;;;17.50;11.55;;;2.10;99.90;;;;;;2041138;29;20723;-71
2021/11/30 02:51:46;;;;;;;17.20;11.82;;;2.10;99.90;;;;;;2039406;29;20036;-71
2021/11/30 02:52:47;;;;;;;19.52;12.07;;;2.00;99.90;;;;;;2039751;29;20028;-70
2021/11/30 02:53:47;;;;;;;18.38;11.77;;;2.00;99.90;;;;;;2040435;29;20512;-70
2021/11/30 02:54:53;;;;;;;18.80;11.70;;;2.00;99.90;;;;;;2041065;29;20024;-70
2021/11/30 02:55:54;;;;;;;19.70;11.80;;;2.00;99.90;;;;;;2041164;29;20055;-70
2021/11/30 02:56:59;;;;;;;18.50;11.35;;;2.00;99.90;;;;;;2041070;29;20027;-70
2021/11/30 02:57:59;;;;;;;16.35;10.80;;;2.00;99.90;;;;;;2041308;29;20023;-70
2021/11/30 02:59:00;;;;;;;17.10;10.82;;;1.90;99.90;;;;;;2041159;29;20035;-71
2021/11/30 03:00:02;;;;;;;17.05;10.90;;;1.90;99.90;;;;;;2040619;29;20032;-70
2021/11/30 03:01:06;;;;;;;17.55;11.18;;;1.90;99.90;;;;;;2040453;29;20043;-68
2021/11/30 03:02:13;;;;;;;16.83;10.30;;;1.90;99.90;;;;;;2040361;29;20086;-70
2021/11/30 03:03:14;;;;;;;16.17;10.60;;;1.90;99.90;;;;;;2041180;29;20101;-70
2021/11/30 03:04:15;;;;;;;18.23;11.55;;;1.90;99.90;;;;;;2041067;29;20040;-71
2021/11/30 03:05:16;;;;;;;19.42;11.70;;;1.80;99.90;;;;;;2040441;29;20039;-69
2021/11/30 03:06:16;;;;;;;17.67;11.25;;;1.80;99.90;;;;;;2040504;29;20038;-69
2021/11/30 03:07:38;;;;;;;17.77;10.90;;;1.80;99.90;;;;;;2041143;29;20046;-68
2021/11/30 03:08:40;;;;;;;17.23;11.38;;;1.80;99.90;;;;;;2041076;29;20039;-69
2021/11/30 03:09:41;;;;;;;17.77;11.48;;;1.70;99.90;;;;;;2041116;29;20103;-69
2021/11/30 03:10:42;;;;;;;16.30;10.65;;;1.80;99.90;;;;;;2041038;29;20087;-70
2021/11/30 03:11:43;;;;;;;17.80;11.57;;;1.70;99.90;;;;;;2040235;29;20066;-69
2021/11/30 03:12:45;;;;;;;18.08;11.23;;;1.70;99.90;;;;;;2041396;29;20502;-70
2021/11/30 03:13:46;;;;;;;18.63;11.77;;;1.70;99.90;;;;;;2041298;29;20032;-69
2021/11/30 03:14:47;;;;;;;18.05;11.05;;;1.70;99.90;;;;;;2041169;29;20803;-69
2021/11/30 03:15:54;;;;;;;17.35;11.13;;;1.70;99.90;;;;;;2041895;29;20039;-69
2021/11/30 03:16:55;;;;;;;19.55;11.40;;;1.70;99.90;;;;;;2041446;29;20472;-70
2021/11/30 03:17:56;;;;;;;15.45;10.15;;;1.70;99.90;;;;;;2041109;29;20530;-69
2021/11/30 03:18:57;;;;;;;17.38;11.15;;;1.70;99.90;;;;;;2040779;29;20034;-70
2021/11/30 03:19:58;;;;;;;17.63;11.07;;;1.70;99.90;;;;;;2039616;29;20035;-70
2021/11/30 03:20:58;;;;;;;15.98;10.85;;;1.70;99.90;;;;;;2040282;29;20059;-70
2021/11/30 03:22:01;;;;;;;16.85;11.15;;;1.70;99.90;;;;;;2040151;29;20070;-70
2021/11/30 03:23:02;;;;;;;17.25;10.98;;;1.70;99.90;;;;;;2040919;29;20039;-70
2021/11/30 03:24:04;;;;;;;17.77;11.38;;;1.70;99.90;;;;;;2040979;29;20123;-70
2021/11/30 03:25:07;;;;;;;16.13;10.40;;;1.70;99.90;;;;;;2040833;29;20031;-69
2021/11/30 03:26:08;;;;;;;17.00;10.65;;;1.70;99.90;;;;;;2040641;29;20380;-69
2021/11/30 03:27:09;;;;;;;18.88;11.15;;;1.70;99.90;;;;;;2040891;29;20111;-69
2021/11/30 03:28:10;;;;;;;16.73;10.93;;;1.60;99.90;;;;;;2040793;29;20388;-69
2021/11/30 03:29:11;;;;;;;16.40;10.60;;;1.60;99.90;;;;;;2040881;29;20035;-70
2021/11/30 03:30:13;;;;;;;18.05;11.18;;;1.60;99.90;;;;;;2040114;29;20039;-69
2021/11/30 03:34:17;;;;;;;17.98;10.80;;;1.60;99.90;;;;;;2024030;29;20037;-70
2021/11/30 03:35:17;;;;;;;17.85;11.00;;;1.60;99.90;;;;;;2024154;29;20429;-72
2021/11/30 03:36:19;;;;;;;16.60;10.70;;;1.60;99.90;;;;;;2023942;29;20044;-71
2021/11/30 03:37:20;;;;;;;17.30;10.93;;;1.60;99.90;;;;;;2024312;29;20555;-71
2021/11/30 03:38:20;;;;;;;16.98;11.00;;;1.60;99.90;;;;;;2028532;29;20042;-72
2021/11/30 03:39:25;;;;;;;17.73;10.32;;;1.60;99.90;;;;;;2041014;29;20497;-70
2021/11/30 03:40:26;;;;;;;15.35;10.27;;;1.60;99.90;;;;;;2040944;29;20082;-70
2021/11/30 03:41:32;;;;;;;16.27;10.30;;;1.60;99.90;;;;;;2040361;29;20446;-70
2021/11/30 03:42:32;;;;;;;15.75;10.20;;;1.60;99.90;;;;;;2040819;29;20411;-71
2021/11/30 03:43:33;;;;;;;15.88;9.85;;;1.70;99.90;;;;;;2040211;29;20115;-70
2021/11/30 03:44:34;;;;;;;17.20;10.10;;;1.70;99.90;;;;;;2040092;29;20436;-69
2021/11/30 03:45:35;;;;;;;15.82;10.05;;;1.60;99.90;;;;;;2040764;29;20028;-69
2021/11/30 03:46:36;;;;;;;15.07;9.60;;;1.70;99.90;;;;;;2040771;29;20024;-70
2021/11/30 03:47:37;;;;;;;15.77;10.05;;;1.60;99.90;;;;;;2040079;29;20115;-70
2021/11/30 03:48:38;;;;;;;14.60;9.75;;;1.60;99.90;;;;;;2040269;29;20055;-71
2021/11/30 03:49:38;;;;;;;15.35;10.25;;;1.60;99.90;;;;;;2040831;29;20027;-70
2021/11/30 03:50:39;;;;;;;16.80;10.50;;;1.60;99.90;;;;;;2040599;29;20042;-71
2021/11/30 03:51:41;;;;;;;14.80;9.98;;;1.60;99.90;;;;;;2039380;29;20028;-71
2021/11/30 03:52:41;;;;;;;16.58;10.52;;;1.60;99.90;;;;;;2040003;29;20042;-71
2021/11/30 03:53:42;;;;;;;14.10;9.40;;;1.60;99.90;;;;;;2040598;29;20530;-71
2021/11/30 03:54:43;;;;;;;13.45;9.63;;;1.70;99.90;;;;;;2040633;29;20051;-70
2021/11/30 03:55:43;;;;;;;14.32;9.07;;;1.70;99.90;;;;;;2040453;29;20023;-71
2021/11/30 03:56:45;;;;;;;15.05;9.60;;;1.70;99.90;;;;;;2040646;29;20050;-70
2021/11/30 03:57:46;;;;;;;13.45;9.10;;;1.70;99.90;;;;;;2040620;29;20031;-71
2021/11/30 03:58:47;;;;;;;12.93;9.05;;;1.70;99.90;;;;;;2040681;29;20047;-71
2021/11/30 03:59:47;;;;;;;14.70;9.45;;;1.70;99.90;;;;;;2040641;29;20535;-71
2021/11/30 04:00:48;;;;;;;11.95;8.77;;;1.70;99.90;;;;;;2040049;29;20069;-71
2021/11/30 04:01:50;;;;;;;13.45;9.15;;;1.70;99.90;;;;;;2039183;29;20631;-71
2021/11/30 04:02:51;;;;;;;14.75;9.23;;;1.70;99.90;;;;;;2039839;29;20103;-71
2021/11/30 04:03:51;;;;;;;12.88;9.25;;;1.70;99.90;;;;;;2040057;29;20063;-70
2021/11/30 04:04:52;;;;;;;13.15;8.88;;;1.70;99.90;;;;;;2040042;29;20040;-70
2021/11/30 04:05:53;;;;;;;14.52;9.27;;;1.70;99.90;;;;;;2039997;29;20036;-70
2021/11/30 04:06:55;;;;;;;13.43;8.88;;;1.70;99.90;;;;;;2040590;29;20031;-69
2021/11/30 04:07:56;;;;;;;13.23;8.82;;;1.70;99.90;;;;;;2040679;29;20392;-70
2021/11/30 04:08:57;;;;;;;12.25;8.68;;;1.80;99.90;;;;;;2040714;29;20035;-69
2021/11/30 04:09:58;;;;;;;12.77;9.10;;;1.80;99.90;;;;;;2040548;29;20435;-70
2021/11/30 04:10:58;;;;;;;12.63;8.45;;;1.80;99.90;;;;;;2040644;29;20082;-69
2021/11/30 04:11:59;;;;;;;12.52;8.60;;;1.80;99.90;;;;;;2039779;29;20031;-70
2021/11/30 04:13:00;;;;;;;11.13;8.23;;;1.80;99.90;;;;;;2040622;29;20110;-70
2021/11/30 04:14:01;;;;;;;12.00;8.27;;;1.80;99.90;;;;;;2040490;29;20028;-70
2021/11/30 04:15:02;;;;;;;11.55;7.88;;;1.90;99.90;;;;;;2040561;29;20028;-70
2021/11/30 04:16:03;;;;;;;11.65;8.60;;;1.90;99.90;;;;;;2040538;29;20078;-69
2021/11/30 04:17:06;;;;;;;11.73;8.35;;;1.90;99.90;;;;;;2040554;29;20038;-68
2021/11/30 04:18:06;;;;;;;11.95;7.90;;;1.90;99.90;;;;;;2040523;29;20030;-70
2021/11/30 04:19:07;;;;;;;11.73;8.35;;;2.00;99.90;;;;;;2041854;29;20828;-70
2021/11/30 04:20:10;;;;;;;12.15;7.97;;;2.00;99.90;;;;;;2042616;29;20024;-71
2021/11/30 04:21:11;;;;;;;11.15;7.75;;;2.00;99.90;;;;;;2043274;29;20391;-71
2021/11/30 04:22:12;;;;;;;11.32;7.88;;;2.00;99.90;;;;;;2042269;29;20038;-70
2021/11/30 04:23:13;;;;;;;10.90;7.70;;;2.00;99.90;;;;;;2041103;29;20032;-69
2021/11/30 04:24:14;;;;;;;11.50;7.78;;;2.00;99.90;;;;;;2040570;29;20487;-69
2021/11/30 04:25:16;;;;;;;11.98;8.25;;;2.10;99.90;;;;;;2040977;29;20031;-70
2021/11/30 04:26:17;;;;;;;12.48;8.23;;;2.10;99.90;;;;;;2039953;29;20099;-69
2021/11/30 04:27:18;;;;;;;10.73;7.75;;;2.10;99.90;;;;;;2040144;29;20439;-70
2021/11/30 04:28:18;;;;;;;11.32;8.15;;;2.10;99.90;;;;;;2040604;29;20024;-70
2021/11/30 04:29:19;;;;;;;10.95;8.00;;;2.10;99.90;;;;;;2040864;29;20552;-70
2021/11/30 04:30:20;;;;;;;11.13;7.78;;;2.10;99.90;;;;;;2039788;29;20036;-71
2021/11/30 04:31:21;;;;;;;10.15;7.30;;;2.10;99.90;;;;;;2039551;29;20034;-69
2021/11/30 04:32:22;;;;;;;10.63;7.43;;;2.10;99.90;;;;;;2039714;29;20035;-69
2021/11/30 04:33:23;;;;;;;10.13;7.50;;;2.10;99.90;;;;;;2040234;29;20027;-69
2021/11/30 04:34:23;;;;;;;10.48;7.72;;;2.10;99.90;;;;;;2040465;29;20051;-69
2021/11/30 04:35:25;;;;;;;11.02;7.80;;;2.10;99.90;;;;;;2040143;29;20043;-70
2021/11/30 04:36:26;;;;;;;10.40;7.47;;;2.10;99.90;;;;;;2039946;29;20023;-70
2021/11/30 04:37:27;;;;;;;11.35;7.78;;;2.10;99.90;;;;;;2040581;29;20067;-69
2021/11/30 04:38:27;;;;;;;11.23;7.65;;;2.20;99.90;;;;;;2040726;29;20091;-70
2021/11/30 04:39:28;;;;;;;10.50;7.80;;;2.20;99.90;;;;;;2040761;29;20531;-69
2021/11/30 04:40:29;;;;;;;10.85;7.90;;;2.20;99.90;;;;;;2040655;29;20062;-70
2021/11/30 04:41:30;;;;;;;10.95;8.05;;;2.20;99.90;;;;;;2039453;29;20052;-70
2021/11/30 04:42:31;;;;;;;11.27;7.75;;;2.20;99.90;;;;;;2040137;29;20032;-70
2021/11/30 04:43:34;;;;;;;11.65;8.43;;;2.30;99.90;;;;;;2040776;29;20030;-70
2021/11/30 04:44:37;;;;;;;12.32;8.20;;;2.20;99.90;;;;;;2040620;29;20064;-70
2021/11/30 04:45:51;;;;;;;12.85;8.32;;;2.30;99.90;;;;;;2041088;29;20099;-70
2021/11/30 04:46:55;;;;;;;11.82;8.43;;;2.30;99.90;;;;;;2041634;29;20011;-70
2021/11/30 04:47:56;;;;;;;12.05;8.73;;;2.30;99.90;;;;;;2041426;29;20124;-69
2021/11/30 04:48:58;;;;;;;13.43;8.55;;;2.40;99.90;;;;;;2041161;29;20034;-70
2021/11/30 04:50:02;;;;;;;12.43;8.52;;;2.40;99.90;;;;;;2041611;29;20440;-70
2021/11/30 04:51:03;;;;;;;11.85;8.20;;;2.40;99.90;;;;;;2041176;29;20023;-70
2021/11/30 04:52:08;;;;;;;11.70;8.50;;;2.50;99.90;;;;;;2040757;29;20036;-70
2021/11/30 04:53:09;;;;;;;13.52;8.95;;;2.50;99.90;;;;;;2041542;29;20027;-69
2021/11/30 04:54:10;;;;;;;13.75;9.02;;;2.50;99.90;;;;;;2040382;29;20036;-69
2021/11/30 04:55:11;;;;;;;11.20;8.60;;;2.50;99.90;;;;;;2040539;29;20106;-69
2021/11/30 04:56:16;;;;;;;12.30;8.55;;;2.50;99.90;;;;;;2040607;29;20042;-69
2021/11/30 04:57:17;;;;;;;11.75;8.25;;;2.50;99.90;;;;;;2040400;29;20094;-69
2021/11/30 04:58:18;;;;;;;14.40;8.65;;;2.50;99.90;;;;;;2031846;29;20440;-70
2021/11/30 04:59:21;;;;;;;12.20;8.23;;;2.50;99.90;;;;;;2031880;29;20024;-69
2021/11/30 05:00:22;;;;;;;16.30;9.13;;;2.50;99.90;;;;;;2039639;29;20441;-69
2021/11/30 05:01:23;;;;;;;13.80;8.70;;;2.50;99.90;;;;;;2039472;29;20032;-69
2021/11/30 05:02:24;;;;;;;12.85;8.55;;;2.50;99.90;;;;;;2039846;29;20821;-69
2021/11/30 05:03:25;;;;;;;15.23;8.38;;;2.60;99.90;;;;;;2040689;29;20042;-69
2021/11/30 05:04:25;;;;;;;13.55;8.95;;;2.60;99.90;;;;;;2041154;29;20083;-70
2021/11/30 05:05:26;;;;;;;12.60;8.65;;;2.60;99.90;;;;;;2041144;29;20719;-69
2021/11/30 05:06:27;;;;;;;13.05;8.65;;;2.60;99.90;;;;;;2041019;29;20028;-69
2021/11/30 05:07:28;;;;;;;13.05;9.02;;;2.60;99.90;;;;;;2039885;29;20083;-69
2021/11/30 05:08:29;;;;;;;12.02;8.57;;;2.70;99.90;;;;;;2039780;29;20031;-69
2021/11/30 05:09:30;;;;;;;13.05;9.10;;;2.70;99.90;;;;;;2040135;29;20480;-70
2021/11/30 05:10:31;;;;;;;14.68;9.05;;;2.70;99.90;;;;;;2040236;29;20032;-70
2021/11/30 05:11:32;;;;;;;15.00;9.68;;;2.70;99.90;;;;;;2039549;29;20468;-70
2021/11/30 05:12:33;;;;;;;15.70;9.23;;;2.70;99.90;;;;;;2031585;29;20028;-70
2021/11/30 05:13:34;;;;;;;14.75;9.52;;;2.70;99.90;;;;;;2031832;29;20040;-70
2021/11/30 05:14:35;;;;;;;13.38;9.15;;;2.70;99.90;;;;;;2040332;29;20031;-70
2021/11/30 05:15:35;;;;;;;12.75;9.15;;;2.70;99.90;;;;;;2041057;29;20381;-70
2021/11/30 05:16:36;;;;;;;13.82;9.88;;;2.70;99.90;;;;;;2039640;29;20139;-69
2021/11/30 05:17:38;;;;;;;16.85;10.63;;;2.70;99.90;;;;;;2039742;29;20117;-69
2021/11/30 05:18:40;;;;;;;15.05;10.00;;;2.70;99.90;;;;;;2040201;29;20023;-69
2021/11/30 05:19:41;;;;;;;14.20;9.95;;;2.70;99.90;;;;;;2040307;29;20024;-71
2021/11/30 05:20:44;;;;;;;16.40;9.95;;;2.70;99.90;;;;;;2040092;29;20843;-69
2021/11/30 05:21:46;;;;;;;15.30;10.10;;;2.70;99.90;;;;;;2038849;29;20027;-69
2021/11/30 05:22:49;;;;;;;14.50;10.30;;;2.70;99.90;;;;;;2039517;29;20039;-69
2021/11/30 05:23:49;;;;;;;15.75;10.75;;;2.70;99.90;;;;;;2039611;29;20035;-71
2021/11/30 05:24:50;;;;;;;17.27;11.18;;;2.70;99.90;;;;;;2039517;29;20067;-70
2021/11/30 05:25:51;;;;;;;17.40;11.60;;;2.70;99.90;;;;;;2040138;29;20122;-70
2021/11/30 05:26:54;;;;;;;17.25;11.30;;;2.70;99.90;;;;;;2040214;29;20036;-71